TimeCST,TemperatureF,Dew PointF,Humidity,Sea Level PressureIn,VisibilityMPH,Wind Direction,Wind SpeedMPH,Gust SpeedMPH,PrecipitationIn,Events,Conditions,WindDirDegrees,DateUTC
12:52 AM,37.0,21.9,54,30.42,10.0,North,9.2,-,N/A,,Clear,10,2011-11-17 06:52:00
1:52 AM,36.0,23.0,59,30.44,10.0,North,8.1,-,N/A,,Clear,360,2011-11-17 07:52:00
2:52 AM,34.0,23.0,64,30.43,10.0,North,8.1,-,N/A,,Clear,360,2011-11-17 08:52:00
3:52 AM,33.1,23.0,66,30.43,10.0,North,3.5,-,N/A,,Clear,360,2011-11-17 09:52:00
4:52 AM,30.9,23.0,72,30.40,10.0,NE,6.9,-,N/A,,Clear,50,2011-11-17 10:52:00
5:52 AM,30.0,25.0,82,30.44,10.0,NW,4.6,-,N/A,,Clear,320,2011-11-17 11:52:00
6:52 AM,30.0,25.0,82,30.46,10.0,NNW,3.5,-,N/A,,Clear,330,2011-11-17 12:52:00
7:52 AM,30.9,26.1,82,30.49,10.0,Calm,Calm,-,N/A,,Clear,0,2011-11-17 13:52:00
8:52 AM,36.0,28.0,73,30.49,10.0,North,5.8,-,N/A,,Clear,360,2011-11-17 14:52:00
9:52 AM,39.0,28.9,67,30.51,10.0,WNW,3.5,-,N/A,,Clear,290,2011-11-17 15:52:00
10:52 AM,43.0,28.0,56,30.50,10.0,Calm,Calm,-,N/A,,Clear,0,2011-11-17 16:52:00
11:52 AM,46.0,28.0,50,30.46,10.0,ENE,3.5,-,N/A,,Clear,60,2011-11-17 17:52:00
12:52 PM,50.0,27.0,41,30.38,10.0,SSE,8.1,-,N/A,,Clear,160,2011-11-17 18:52:00
1:52 PM,54.0,26.1,34,30.33,10.0,SSE,9.2,-,N/A,,Clear,150,2011-11-17 19:52:00
2:52 PM,55.9,26.1,32,30.29,10.0,SSE,11.5,-,N/A,,Clear,160,2011-11-17 20:52:00
3:52 PM,57.0,26.1,30,30.26,10.0,SSE,16.1,20.7,N/A,,Clear,160,2011-11-17 21:52:00
4:52 PM,55.9,27.0,33,30.25,10.0,SSE,12.7,-,N/A,,Clear,160,2011-11-17 22:52:00
5:52 PM,51.1,27.0,39,30.25,10.0,SSE,8.1,-,N/A,,Clear,150,2011-11-17 23:52:00
6:52 PM,48.0,28.0,46,30.25,10.0,SSE,8.1,-,N/A,,Clear,150,2011-11-18 00:52:00
7:52 PM,45.0,28.0,52,30.24,10.0,SSE,9.2,-,N/A,,Clear,150,2011-11-18 01:52:00
8:52 PM,50.0,28.0,43,30.21,10.0,SSE,15.0,-,N/A,,Clear,160,2011-11-18 02:52:00
9:52 PM,48.9,28.9,46,30.19,10.0,SSE,16.1,-,N/A,,Clear,160,2011-11-18 03:52:00
10:52 PM,48.9,30.0,48,30.18,10.0,SSE,17.3,24.2,N/A,,Clear,160,2011-11-18 04:52:00
11:52 PM,48.9,30.0,48,30.16,10.0,South,23.0,32.2,N/A,,Clear,170,2011-11-18 05:52:00